sensor_id;sensor_type;location;lat;lon;timestamp;P1;durP1;ratioP1;P2;durP2;ratioP2
73168;SDS011;61379;59.732;30.468;2022-08-25T00:00:58;10.52;;;8.18;;
73168;SDS011;61379;59.732;30.468;2022-08-25T00:03:25;8.75;;;7.95;;
73168;SDS011;61379;59.732;30.468;2022-08-25T00:05:51;8.65;;;7.78;;
73168;SDS011;61379;59.732;30.468;2022-08-25T00:08:18;8.80;;;7.93;;
73168;SDS011;61379;59.732;30.468;2022-08-25T00:10:45;9.05;;;8.18;;
73168;SDS011;61379;59.732;30.468;2022-08-25T00:13:13;9.43;;;8.35;;
73168;SDS011;61379;59.732;30.468;2022-08-25T00:15:39;8.40;;;7.63;;
73168;SDS011;61379;59.732;30.468;2022-08-25T00:18:06;8.57;;;7.70;;
73168;SDS011;61379;59.732;30.468;2022-08-25T00:20:33;9.15;;;8.25;;
73168;SDS011;61379;59.732;30.468;2022-08-25T00:23:00;8.98;;;7.78;;
73168;SDS011;61379;59.732;30.468;2022-08-25T00:25:26;9.02;;;7.90;;
73168;SDS011;61379;59.732;30.468;2022-08-25T00:27:53;9.05;;;8.25;;
73168;SDS011;61379;59.732;30.468;2022-08-25T00:30:22;8.68;;;7.82;;
73168;SDS011;61379;59.732;30.468;2022-08-25T00:32:49;9.45;;;8.50;;
73168;SDS011;61379;59.732;30.468;2022-08-25T00:35:17;10.27;;;8.60;;
73168;SDS011;61379;59.732;30.468;2022-08-25T00:37:44;10.73;;;9.43;;
73168;SDS011;61379;59.732;30.468;2022-08-25T00:40:11;10.50;;;8.30;;
73168;SDS011;61379;59.732;30.468;2022-08-25T00:42:37;11.50;;;8.43;;
73168;SDS011;61379;59.732;30.468;2022-08-25T00:45:05;9.38;;;8.45;;
73168;SDS011;61379;59.732;30.468;2022-08-25T00:47:33;9.27;;;8.48;;
73168;SDS011;61379;59.732;30.468;2022-08-25T00:50:00;9.23;;;8.43;;
73168;SDS011;61379;59.732;30.468;2022-08-25T00:52:28;8.75;;;7.88;;
73168;SDS011;61379;59.732;30.468;2022-08-25T00:54:57;9.38;;;8.52;;
73168;SDS011;61379;59.732;30.468;2022-08-25T00:57:25;9.20;;;8.23;;
73168;SDS011;61379;59.732;30.468;2022-08-25T00:59:53;11.38;;;8.75;;
73168;SDS011;61379;59.732;30.468;2022-08-25T01:02:20;9.10;;;8.13;;
73168;SDS011;61379;59.732;30.468;2022-08-25T01:04:48;10.90;;;7.93;;
73168;SDS011;61379;59.732;30.468;2022-08-25T01:07:16;15.40;;;9.07;;
73168;SDS011;61379;59.732;30.468;2022-08-25T01:09:43;9.93;;;8.93;;
73168;SDS011;61379;59.732;30.468;2022-08-25T01:12:10;9.35;;;8.43;;
73168;SDS011;61379;59.732;30.468;2022-08-25T01:14:37;12.13;;;8.05;;
73168;SDS011;61379;59.732;30.468;2022-08-25T01:17:03;10.30;;;9.27;;
73168;SDS011;61379;59.732;30.468;2022-08-25T01:19:30;10.35;;;8.25;;
73168;SDS011;61379;59.732;30.468;2022-08-25T01:21:59;10.93;;;8.63;;
73168;SDS011;61379;59.732;30.468;2022-08-25T01:24:28;9.90;;;8.30;;
73168;SDS011;61379;59.732;30.468;2022-08-25T01:26:56;12.05;;;8.30;;
73168;SDS011;61379;59.732;30.468;2022-08-25T01:29:23;10.10;;;8.60;;
73168;SDS011;61379;59.732;30.468;2022-08-25T01:31:52;8.55;;;7.75;;
73168;SDS011;61379;59.732;30.468;2022-08-25T01:34:22;9.80;;;8.63;;
73168;SDS011;61379;59.732;30.468;2022-08-25T01:36:49;9.48;;;8.40;;
73168;SDS011;61379;59.732;30.468;2022-08-25T01:39:17;9.73;;;8.48;;
73168;SDS011;61379;59.732;30.468;2022-08-25T01:41:48;10.40;;;8.82;;
73168;SDS011;61379;59.732;30.468;2022-08-25T01:44:16;10.15;;;7.75;;
73168;SDS011;61379;59.732;30.468;2022-08-25T01:46:43;10.75;;;8.60;;
73168;SDS011;61379;59.732;30.468;2022-08-25T01:49:10;11.20;;;9.05;;
73168;SDS011;61379;59.732;30.468;2022-08-25T01:51:37;10.32;;;9.10;;
73168;SDS011;61379;59.732;30.468;2022-08-25T01:54:05;11.93;;;8.40;;
73168;SDS011;61379;59.732;30.468;2022-08-25T01:56:33;10.35;;;9.32;;
73168;SDS011;61379;59.732;30.468;2022-08-25T01:59:00;11.50;;;9.63;;
73168;SDS011;61379;59.732;30.468;2022-08-25T02:01:27;10.75;;;9.45;;
73168;SDS011;61379;59.732;30.468;2022-08-25T02:03:54;14.50;;;9.15;;
73168;SDS011;61379;59.732;30.468;2022-08-25T02:06:22;11.98;;;9.38;;
73168;SDS011;61379;59.732;30.468;2022-08-25T02:08:50;10.55;;;9.45;;
73168;SDS011;61379;59.732;30.468;2022-08-25T02:11:17;11.20;;;9.52;;
73168;SDS011;61379;59.732;30.468;2022-08-25T02:13:45;9.73;;;8.40;;
73168;SDS011;61379;59.732;30.468;2022-08-25T02:16:14;12.65;;;9.07;;
73168;SDS011;61379;59.732;30.468;2022-08-25T02:18:42;10.05;;;8.60;;
73168;SDS011;61379;59.732;30.468;2022-08-25T02:21:10;13.35;;;9.55;;
73168;SDS011;61379;59.732;30.468;2022-08-25T02:23:37;11.82;;;8.90;;
73168;SDS011;61379;59.732;30.468;2022-08-25T02:26:04;11.35;;;9.30;;
73168;SDS011;61379;59.732;30.468;2022-08-25T02:28:30;13.10;;;10.00;;
73168;SDS011;61379;59.732;30.468;2022-08-25T02:30:58;13.30;;;9.55;;
73168;SDS011;61379;59.732;30.468;2022-08-25T02:33:25;13.15;;;9.20;;
73168;SDS011;61379;59.732;30.468;2022-08-25T02:35:55;13.38;;;9.50;;
73168;SDS011;61379;59.732;30.468;2022-08-25T02:38:22;10.82;;;9.32;;
73168;SDS011;61379;59.732;30.468;2022-08-25T02:40:49;14.75;;;9.52;;
73168;SDS011;61379;59.732;30.468;2022-08-25T02:43:16;12.18;;;9.85;;
73168;SDS011;61379;59.732;30.468;2022-08-25T02:45:43;11.38;;;9.73;;
73168;SDS011;61379;59.732;30.468;2022-08-25T02:48:11;11.35;;;10.20;;
73168;SDS011;61379;59.732;30.468;2022-08-25T02:50:37;12.43;;;9.60;;
73168;SDS011;61379;59.732;30.468;2022-08-25T02:53:04;12.90;;;9.18;;
73168;SDS011;61379;59.732;30.468;2022-08-25T02:55:31;11.65;;;9.80;;
73168;SDS011;61379;59.732;30.468;2022-08-25T02:57:58;14.55;;;11.07;;
73168;SDS011;61379;59.732;30.468;2022-08-25T03:00:25;15.25;;;9.27;;
73168;SDS011;61379;59.732;30.468;2022-08-25T03:02:51;18.95;;;9.60;;
73168;SDS011;61379;59.732;30.468;2022-08-25T03:05:20;17.60;;;10.15;;
73168;SDS011;61379;59.732;30.468;2022-08-25T03:07:46;13.20;;;9.88;;
73168;SDS011;61379;59.732;30.468;2022-08-25T03:10:14;13.45;;;12.00;;
73168;SDS011;61379;59.732;30.468;2022-08-25T03:12:42;16.60;;;14.88;;
73168;SDS011;61379;59.732;30.468;2022-08-25T03:15:10;15.43;;;12.27;;
73168;SDS011;61379;59.732;30.468;2022-08-25T03:17:37;11.75;;;10.60;;
73168;SDS011;61379;59.732;30.468;2022-08-25T03:20:04;12.25;;;11.02;;
73168;SDS011;61379;59.732;30.468;2022-08-25T03:22:32;10.52;;;9.52;;
73168;SDS011;61379;59.732;30.468;2022-08-25T03:25:00;11.98;;;10.05;;
73168;SDS011;61379;59.732;30.468;2022-08-25T03:27:41;11.40;;;10.15;;
73168;SDS011;61379;59.732;30.468;2022-08-25T03:30:08;13.85;;;11.20;;
73168;SDS011;61379;59.732;30.468;2022-08-25T03:32:35;17.13;;;11.27;;
73168;SDS011;61379;59.732;30.468;2022-08-25T03:35:02;12.45;;;11.18;;
73168;SDS011;61379;59.732;30.468;2022-08-25T03:37:29;15.32;;;10.68;;
73168;SDS011;61379;59.732;30.468;2022-08-25T03:39:57;17.35;;;10.15;;
73168;SDS011;61379;59.732;30.468;2022-08-25T03:42:24;13.68;;;10.38;;
73168;SDS011;61379;59.732;30.468;2022-08-25T03:44:51;18.52;;;10.10;;
73168;SDS011;61379;59.732;30.468;2022-08-25T03:47:17;12.10;;;9.40;;
73168;SDS011;61379;59.732;30.468;2022-08-25T03:49:44;19.50;;;9.27;;
73168;SDS011;61379;59.732;30.468;2022-08-25T03:52:11;14.73;;;9.15;;
73168;SDS011;61379;59.732;30.468;2022-08-25T03:54:38;19.17;;;9.88;;
73168;SDS011;61379;59.732;30.468;2022-08-25T03:57:07;15.07;;;12.75;;
73168;SDS011;61379;59.732;30.468;2022-08-25T03:59:36;19.73;;;13.23;;
73168;SDS011;61379;59.732;30.468;2022-08-25T04:02:03;19.75;;;12.52;;
73168;SDS011;61379;59.732;30.468;2022-08-25T04:04:30;17.58;;;11.70;;
73168;SDS011;61379;59.732;30.468;2022-08-25T04:06:57;22.60;;;11.55;;
73168;SDS011;61379;59.732;30.468;2022-08-25T04:09:24;17.42;;;10.80;;
73168;SDS011;61379;59.732;30.468;2022-08-25T04:11:51;15.68;;;10.90;;
73168;SDS011;61379;59.732;30.468;2022-08-25T04:14:19;18.55;;;11.63;;
73168;SDS011;61379;59.732;30.468;2022-08-25T04:16:46;16.45;;;11.40;;
73168;SDS011;61379;59.732;30.468;2022-08-25T04:19:13;17.48;;;11.43;;
73168;SDS011;61379;59.732;30.468;2022-08-25T04:21:39;17.05;;;11.57;;
73168;SDS011;61379;59.732;30.468;2022-08-25T04:24:07;18.42;;;12.32;;
73168;SDS011;61379;59.732;30.468;2022-08-25T04:26:34;17.42;;;10.98;;
73168;SDS011;61379;59.732;30.468;2022-08-25T04:29:02;18.30;;;11.02;;
73168;SDS011;61379;59.732;30.468;2022-08-25T04:31:31;14.63;;;10.02;;
73168;SDS011;61379;59.732;30.468;2022-08-25T04:34:00;14.93;;;10.70;;
73168;SDS011;61379;59.732;30.468;2022-08-25T04:38:53;12.32;;;10.80;;
73168;SDS011;61379;59.732;30.468;2022-08-25T04:41:21;14.25;;;10.52;;
73168;SDS011;61379;59.732;30.468;2022-08-25T04:43:48;23.60;;;11.23;;
73168;SDS011;61379;59.732;30.468;2022-08-25T04:46:16;17.45;;;10.90;;
73168;SDS011;61379;59.732;30.468;2022-08-25T04:48:45;15.48;;;10.70;;
73168;SDS011;61379;59.732;30.468;2022-08-25T04:51:12;16.67;;;10.82;;
73168;SDS011;61379;59.732;30.468;2022-08-25T04:53:39;19.13;;;10.60;;
73168;SDS011;61379;59.732;30.468;2022-08-25T04:56:07;16.08;;;10.63;;
73168;SDS011;61379;59.732;30.468;2022-08-25T04:58:34;16.67;;;11.52;;
73168;SDS011;61379;59.732;30.468;2022-08-25T05:01:02;17.30;;;11.93;;
73168;SDS011;61379;59.732;30.468;2022-08-25T05:03:29;16.88;;;11.43;;
73168;SDS011;61379;59.732;30.468;2022-08-25T05:05:57;16.83;;;11.93;;
73168;SDS011;61379;59.732;30.468;2022-08-25T05:08:24;15.93;;;11.60;;
73168;SDS011;61379;59.732;30.468;2022-08-25T05:10:51;17.20;;;11.18;;
73168;SDS011;61379;59.732;30.468;2022-08-25T05:13:19;18.15;;;11.20;;
73168;SDS011;61379;59.732;30.468;2022-08-25T05:15:50;17.50;;;11.77;;
73168;SDS011;61379;59.732;30.468;2022-08-25T05:18:17;16.60;;;11.48;;
73168;SDS011;61379;59.732;30.468;2022-08-25T05:20:44;17.15;;;12.88;;
73168;SDS011;61379;59.732;30.468;2022-08-25T05:23:12;17.00;;;11.23;;
73168;SDS011;61379;59.732;30.468;2022-08-25T05:25:39;16.17;;;12.48;;
73168;SDS011;61379;59.732;30.468;2022-08-25T05:28:06;15.82;;;12.15;;
73168;SDS011;61379;59.732;30.468;2022-08-25T05:30:35;20.00;;;13.27;;
73168;SDS011;61379;59.732;30.468;2022-08-25T05:33:02;15.32;;;11.18;;
73168;SDS011;61379;59.732;30.468;2022-08-25T05:35:29;16.92;;;11.93;;
73168;SDS011;61379;59.732;30.468;2022-08-25T05:37:56;19.08;;;12.88;;
73168;SDS011;61379;59.732;30.468;2022-08-25T05:40:24;15.07;;;12.68;;
73168;SDS011;61379;59.732;30.468;2022-08-25T05:42:50;16.98;;;12.48;;
73168;SDS011;61379;59.732;30.468;2022-08-25T05:45:17;16.35;;;13.38;;
73168;SDS011;61379;59.732;30.468;2022-08-25T05:47:44;20.05;;;12.82;;
73168;SDS011;61379;59.732;30.468;2022-08-25T05:50:10;20.67;;;13.77;;
73168;SDS011;61379;59.732;30.468;2022-08-25T05:52:37;20.17;;;13.35;;
73168;SDS011;61379;59.732;30.468;2022-08-25T05:55:04;19.85;;;13.00;;
73168;SDS011;61379;59.732;30.468;2022-08-25T05:57:33;22.42;;;14.85;;
73168;SDS011;61379;59.732;30.468;2022-08-25T06:00:00;26.60;;;13.85;;
73168;SDS011;61379;59.732;30.468;2022-08-25T06:02:27;19.13;;;14.23;;
73168;SDS011;61379;59.732;30.468;2022-08-25T06:07:42;17.52;;;14.45;;
73168;SDS011;61379;59.732;30.468;2022-08-25T06:10:09;20.13;;;14.38;;
73168;SDS011;61379;59.732;30.468;2022-08-25T06:12:39;17.55;;;13.23;;
73168;SDS011;61379;59.732;30.468;2022-08-25T06:15:09;17.20;;;12.65;;
73168;SDS011;61379;59.732;30.468;2022-08-25T06:17:36;22.00;;;14.07;;
73168;SDS011;61379;59.732;30.468;2022-08-25T06:22:31;19.58;;;14.68;;
73168;SDS011;61379;59.732;30.468;2022-08-25T06:24:58;17.10;;;13.88;;
73168;SDS011;61379;59.732;30.468;2022-08-25T06:27:24;26.70;;;15.60;;
73168;SDS011;61379;59.732;30.468;2022-08-25T06:29:53;19.58;;;13.35;;
73168;SDS011;61379;59.732;30.468;2022-08-25T06:32:19;22.73;;;14.48;;
73168;SDS011;61379;59.732;30.468;2022-08-25T06:34:46;16.13;;;12.68;;
73168;SDS011;61379;59.732;30.468;2022-08-25T06:37:13;19.60;;;13.75;;
73168;SDS011;61379;59.732;30.468;2022-08-25T06:39:39;19.60;;;12.50;;
73168;SDS011;61379;59.732;30.468;2022-08-25T06:42:06;14.90;;;11.68;;
73168;SDS011;61379;59.732;30.468;2022-08-25T06:44:33;20.92;;;11.70;;
73168;SDS011;61379;59.732;30.468;2022-08-25T06:47:01;27.10;;;12.25;;
73168;SDS011;61379;59.732;30.468;2022-08-25T06:49:28;17.30;;;11.85;;
73168;SDS011;61379;59.732;30.468;2022-08-25T06:51:55;20.73;;;12.48;;
73168;SDS011;61379;59.732;30.468;2022-08-25T06:54:22;16.50;;;12.07;;
73168;SDS011;61379;59.732;30.468;2022-08-25T06:56:48;16.20;;;11.10;;
73168;SDS011;61379;59.732;30.468;2022-08-25T06:59:15;17.95;;;11.75;;
73168;SDS011;61379;59.732;30.468;2022-08-25T07:01:43;17.98;;;11.93;;
73168;SDS011;61379;59.732;30.468;2022-08-25T07:04:11;17.20;;;12.13;;
73168;SDS011;61379;59.732;30.468;2022-08-25T07:06:37;18.92;;;12.35;;
73168;SDS011;61379;59.732;30.468;2022-08-25T07:09:05;16.25;;;12.77;;
73168;SDS011;61379;59.732;30.468;2022-08-25T07:11:32;18.13;;;12.52;;
73168;SDS011;61379;59.732;30.468;2022-08-25T07:13:59;19.63;;;13.02;;
73168;SDS011;61379;59.732;30.468;2022-08-25T07:16:27;16.95;;;12.45;;
73168;SDS011;61379;59.732;30.468;2022-08-25T07:18:54;19.70;;;13.48;;
73168;SDS011;61379;59.732;30.468;2022-08-25T07:21:23;19.40;;;13.55;;
73168;SDS011;61379;59.732;30.468;2022-08-25T07:23:50;17.42;;;12.30;;
73168;SDS011;61379;59.732;30.468;2022-08-25T07:26:18;15.15;;;11.60;;
73168;SDS011;61379;59.732;30.468;2022-08-25T07:28:45;15.15;;;12.02;;
73168;SDS011;61379;59.732;30.468;2022-08-25T07:31:12;11.88;;;9.82;;
73168;SDS011;61379;59.732;30.468;2022-08-25T07:33:39;12.70;;;10.18;;
73168;SDS011;61379;59.732;30.468;2022-08-25T07:36:28;13.55;;;8.93;;
73168;SDS011;61379;59.732;30.468;2022-08-25T07:38:53;12.85;;;10.18;;
73168;SDS011;61379;59.732;30.468;2022-08-25T07:41:21;15.50;;;9.93;;
73168;SDS011;61379;59.732;30.468;2022-08-25T07:43:47;13.48;;;9.85;;
73168;SDS011;61379;59.732;30.468;2022-08-25T07:46:14;15.02;;;8.70;;
73168;SDS011;61379;59.732;30.468;2022-08-25T07:48:41;14.25;;;9.50;;
73168;SDS011;61379;59.732;30.468;2022-08-25T07:51:08;17.38;;;9.50;;
73168;SDS011;61379;59.732;30.468;2022-08-25T07:53:37;13.90;;;9.90;;
73168;SDS011;61379;59.732;30.468;2022-08-25T07:56:08;12.48;;;9.32;;
73168;SDS011;61379;59.732;30.468;2022-08-25T07:58:35;14.13;;;9.50;;
73168;SDS011;61379;59.732;30.468;2022-08-25T08:01:01;17.52;;;8.68;;
73168;SDS011;61379;59.732;30.468;2022-08-25T08:03:28;15.38;;;9.80;;
73168;SDS011;61379;59.732;30.468;2022-08-25T08:05:55;14.52;;;9.68;;
73168;SDS011;61379;59.732;30.468;2022-08-25T08:08:22;12.88;;;9.35;;
73168;SDS011;61379;59.732;30.468;2022-08-25T08:10:50;12.63;;;8.55;;
73168;SDS011;61379;59.732;30.468;2022-08-25T08:13:17;16.63;;;9.13;;
73168;SDS011;61379;59.732;30.468;2022-08-25T08:15:44;12.75;;;9.07;;
73168;SDS011;61379;59.732;30.468;2022-08-25T08:18:10;14.65;;;9.40;;
73168;SDS011;61379;59.732;30.468;2022-08-25T08:20:37;14.35;;;8.18;;
73168;SDS011;61379;59.732;30.468;2022-08-25T08:23:04;15.43;;;9.15;;
73168;SDS011;61379;59.732;30.468;2022-08-25T08:25:30;16.23;;;9.95;;
73168;SDS011;61379;59.732;30.468;2022-08-25T08:27:59;17.52;;;9.23;;
73168;SDS011;61379;59.732;30.468;2022-08-25T08:30:25;15.98;;;10.07;;
73168;SDS011;61379;59.732;30.468;2022-08-25T08:32:52;16.20;;;10.18;;
73168;SDS011;61379;59.732;30.468;2022-08-25T08:35:19;13.77;;;11.18;;
73168;SDS011;61379;59.732;30.468;2022-08-25T08:37:46;21.30;;;9.88;;
73168;SDS011;61379;59.732;30.468;2022-08-25T08:40:13;14.00;;;11.05;;
73168;SDS011;61379;59.732;30.468;2022-08-25T08:42:46;14.75;;;10.82;;
73168;SDS011;61379;59.732;30.468;2022-08-25T08:45:32;17.50;;;11.20;;
73168;SDS011;61379;59.732;30.468;2022-08-25T08:48:02;17.92;;;10.98;;
73168;SDS011;61379;59.732;30.468;2022-08-25T08:50:36;16.00;;;11.20;;
73168;SDS011;61379;59.732;30.468;2022-08-25T08:53:05;19.73;;;12.18;;
73168;SDS011;61379;59.732;30.468;2022-08-25T08:55:35;18.13;;;10.75;;
73168;SDS011;61379;59.732;30.468;2022-08-25T08:58:03;22.75;;;11.65;;
73168;SDS011;61379;59.732;30.468;2022-08-25T09:00:32;21.20;;;12.32;;
73168;SDS011;61379;59.732;30.468;2022-08-25T09:03:05;19.67;;;11.77;;
73168;SDS011;61379;59.732;30.468;2022-08-25T09:05:35;21.05;;;12.52;;
73168;SDS011;61379;59.732;30.468;2022-08-25T09:08:05;19.15;;;11.32;;
73168;SDS011;61379;59.732;30.468;2022-08-25T09:10:33;22.55;;;12.18;;
73168;SDS011;61379;59.732;30.468;2022-08-25T09:13:06;14.95;;;9.98;;
73168;SDS011;61379;59.732;30.468;2022-08-25T09:15:38;30.58;;;12.65;;
73168;SDS011;61379;59.732;30.468;2022-08-25T09:18:25;20.48;;;15.30;;
73168;SDS011;61379;59.732;30.468;2022-08-25T09:20:58;21.30;;;14.63;;
73168;SDS011;61379;59.732;30.468;2022-08-25T09:23:33;19.58;;;13.02;;
73168;SDS011;61379;59.732;30.468;2022-08-25T09:26:02;18.73;;;11.00;;
73168;SDS011;61379;59.732;30.468;2022-08-25T09:28:34;15.52;;;11.73;;
73168;SDS011;61379;59.732;30.468;2022-08-25T09:31:10;17.67;;;13.25;;
73168;SDS011;61379;59.732;30.468;2022-08-25T09:33:38;14.35;;;10.98;;
73168;SDS011;61379;59.732;30.468;2022-08-25T09:36:04;14.88;;;10.95;;
73168;SDS011;61379;59.732;30.468;2022-08-25T09:38:31;18.95;;;11.00;;
73168;SDS011;61379;59.732;30.468;2022-08-25T09:40:59;19.45;;;11.63;;
73168;SDS011;61379;59.732;30.468;2022-08-25T09:43:29;14.65;;;11.90;;
73168;SDS011;61379;59.732;30.468;2022-08-25T09:45:58;15.43;;;12.20;;
73168;SDS011;61379;59.732;30.468;2022-08-25T09:48:27;19.08;;;13.90;;
73168;SDS011;61379;59.732;30.468;2022-08-25T09:50:56;23.67;;;12.88;;
73168;SDS011;61379;59.732;30.468;2022-08-25T09:53:24;20.92;;;13.30;;
73168;SDS011;61379;59.732;30.468;2022-08-25T09:55:53;19.73;;;13.48;;
73168;SDS011;61379;59.732;30.468;2022-08-25T09:58:22;20.98;;;14.35;;
73168;SDS011;61379;59.732;30.468;2022-08-25T10:01:00;20.70;;;13.63;;
73168;SDS011;61379;59.732;30.468;2022-08-25T10:03:28;20.40;;;13.00;;
73168;SDS011;61379;59.732;30.468;2022-08-25T10:05:57;19.13;;;12.45;;
73168;SDS011;61379;59.732;30.468;2022-08-25T10:08:26;18.67;;;12.07;;
73168;SDS011;61379;59.732;30.468;2022-08-25T10:10:55;20.38;;;13.07;;
73168;SDS011;61379;59.732;30.468;2022-08-25T10:13:32;18.80;;;12.77;;
73168;SDS011;61379;59.732;30.468;2022-08-25T10:16:02;19.15;;;13.40;;
73168;SDS011;61379;59.732;30.468;2022-08-25T10:18:30;21.75;;;13.38;;
73168;SDS011;61379;59.732;30.468;2022-08-25T10:21:02;21.90;;;16.30;;
73168;SDS011;61379;59.732;30.468;2022-08-25T10:23:29;24.15;;;14.82;;
73168;SDS011;61379;59.732;30.468;2022-08-25T10:25:56;19.98;;;15.98;;
73168;SDS011;61379;59.732;30.468;2022-08-25T10:28:26;17.02;;;13.70;;
73168;SDS011;61379;59.732;30.468;2022-08-25T10:30:57;24.42;;;16.08;;
73168;SDS011;61379;59.732;30.468;2022-08-25T10:33:33;26.23;;;14.38;;
73168;SDS011;61379;59.732;30.468;2022-08-25T10:36:03;24.33;;;16.52;;
73168;SDS011;61379;59.732;30.468;2022-08-25T10:38:35;19.35;;;15.07;;
73168;SDS011;61379;59.732;30.468;2022-08-25T10:41:05;19.55;;;15.13;;
73168;SDS011;61379;59.732;30.468;2022-08-25T10:43:34;17.13;;;14.13;;
73168;SDS011;61379;59.732;30.468;2022-08-25T10:46:03;17.35;;;13.85;;
73168;SDS011;61379;59.732;30.468;2022-08-25T10:48:41;18.75;;;14.20;;
73168;SDS011;61379;59.732;30.468;2022-08-25T10:51:24;19.75;;;13.13;;
73168;SDS011;61379;59.732;30.468;2022-08-25T10:56:22;15.50;;;12.48;;
73168;SDS011;61379;59.732;30.468;2022-08-25T10:58:53;19.25;;;13.00;;
73168;SDS011;61379;59.732;30.468;2022-08-25T11:01:26;18.27;;;13.98;;
73168;SDS011;61379;59.732;30.468;2022-08-25T11:03:59;19.83;;;13.25;;
73168;SDS011;61379;59.732;30.468;2022-08-25T11:06:36;16.30;;;14.10;;
73168;SDS011;61379;59.732;30.468;2022-08-25T11:09:04;17.75;;;14.20;;
73168;SDS011;61379;59.732;30.468;2022-08-25T11:11:33;21.40;;;14.63;;
73168;SDS011;61379;59.732;30.468;2022-08-25T11:14:03;16.10;;;14.13;;
73168;SDS011;61379;59.732;30.468;2022-08-25T11:16:34;20.13;;;14.60;;
73168;SDS011;61379;59.732;30.468;2022-08-25T11:19:04;18.75;;;13.90;;
73168;SDS011;61379;59.732;30.468;2022-08-25T11:21:35;18.50;;;13.88;;
73168;SDS011;61379;59.732;30.468;2022-08-25T11:24:06;14.63;;;12.93;;
73168;SDS011;61379;59.732;30.468;2022-08-25T11:26:36;15.65;;;13.10;;
73168;SDS011;61379;59.732;30.468;2022-08-25T11:29:05;17.75;;;12.85;;
73168;SDS011;61379;59.732;30.468;2022-08-25T11:31:35;14.55;;;12.88;;
73168;SDS011;61379;59.732;30.468;2022-08-25T11:34:05;15.90;;;12.68;;
73168;SDS011;61379;59.732;30.468;2022-08-25T11:36:34;16.20;;;11.75;;
73168;SDS011;61379;59.732;30.468;2022-08-25T11:39:08;13.52;;;11.38;;
73168;SDS011;61379;59.732;30.468;2022-08-25T11:41:40;13.25;;;12.05;;
73168;SDS011;61379;59.732;30.468;2022-08-25T11:44:25;11.88;;;10.68;;
73168;SDS011;61379;59.732;30.468;2022-08-25T11:47:02;12.48;;;11.18;;
73168;SDS011;61379;59.732;30.468;2022-08-25T11:49:43;13.55;;;11.00;;
73168;SDS011;61379;59.732;30.468;2022-08-25T11:54:54;11.20;;;10.13;;
73168;SDS011;61379;59.732;30.468;2022-08-25T11:57:22;13.95;;;10.20;;
73168;SDS011;61379;59.732;30.468;2022-08-25T12:00:08;13.43;;;10.35;;
73168;SDS011;61379;59.732;30.468;2022-08-25T12:02:38;12.90;;;10.48;;
73168;SDS011;61379;59.732;30.468;2022-08-25T12:05:08;11.35;;;9.65;;
73168;SDS011;61379;59.732;30.468;2022-08-25T12:13:26;13.50;;;9.77;;
73168;SDS011;61379;59.732;30.468;2022-08-25T12:15:54;14.32;;;10.10;;
73168;SDS011;61379;59.732;30.468;2022-08-25T12:18:38;12.35;;;9.50;;
73168;SDS011;61379;59.732;30.468;2022-08-25T12:24:15;13.38;;;9.23;;
73168;SDS011;61379;59.732;30.468;2022-08-25T12:26:48;11.55;;;10.38;;
73168;SDS011;61379;59.732;30.468;2022-08-25T12:29:19;10.40;;;9.35;;
73168;SDS011;61379;59.732;30.468;2022-08-25T12:31:57;9.60;;;8.75;;
73168;SDS011;61379;59.732;30.468;2022-08-25T12:36:57;11.80;;;9.77;;
73168;SDS011;61379;59.732;30.468;2022-08-25T12:39:29;10.45;;;9.45;;
73168;SDS011;61379;59.732;30.468;2022-08-25T12:41:57;11.48;;;9.80;;
73168;SDS011;61379;59.732;30.468;2022-08-25T12:47:26;9.88;;;8.75;;
73168;SDS011;61379;59.732;30.468;2022-08-25T12:52:41;11.20;;;9.57;;
73168;SDS011;61379;59.732;30.468;2022-08-25T12:55:09;14.45;;;9.07;;
73168;SDS011;61379;59.732;30.468;2022-08-25T12:57:39;11.13;;;10.02;;
73168;SDS011;61379;59.732;30.468;2022-08-25T13:00:12;13.25;;;10.88;;
73168;SDS011;61379;59.732;30.468;2022-08-25T13:02:54;11.88;;;10.68;;
73168;SDS011;61379;59.732;30.468;2022-08-25T13:11:01;10.90;;;9.55;;
73168;SDS011;61379;59.732;30.468;2022-08-25T13:13:34;8.75;;;7.90;;
73168;SDS011;61379;59.732;30.468;2022-08-25T13:16:04;9.98;;;8.93;;
73168;SDS011;61379;59.732;30.468;2022-08-25T13:18:33;10.25;;;8.52;;
73168;SDS011;61379;59.732;30.468;2022-08-25T13:21:02;9.60;;;8.65;;
73168;SDS011;61379;59.732;30.468;2022-08-25T13:23:29;10.45;;;9.55;;
73168;SDS011;61379;59.732;30.468;2022-08-25T13:25:56;9.73;;;8.82;;
73168;SDS011;61379;59.732;30.468;2022-08-25T13:28:26;9.73;;;8.63;;
73168;SDS011;61379;59.732;30.468;2022-08-25T13:30:58;8.68;;;7.97;;
73168;SDS011;61379;59.732;30.468;2022-08-25T13:33:25;9.02;;;8.10;;
73168;SDS011;61379;59.732;30.468;2022-08-25T13:35:53;9.15;;;8.25;;
73168;SDS011;61379;59.732;30.468;2022-08-25T13:38:42;9.18;;;8.40;;
73168;SDS011;61379;59.732;30.468;2022-08-25T13:41:08;9.05;;;8.25;;
73168;SDS011;61379;59.732;30.468;2022-08-25T13:43:36;10.52;;;9.48;;
73168;SDS011;61379;59.732;30.468;2022-08-25T13:46:03;9.48;;;8.60;;
73168;SDS011;61379;59.732;30.468;2022-08-25T13:48:32;9.68;;;8.57;;
73168;SDS011;61379;59.732;30.468;2022-08-25T13:51:05;9.98;;;8.98;;
73168;SDS011;61379;59.732;30.468;2022-08-25T13:53:33;9.50;;;8.63;;
73168;SDS011;61379;59.732;30.468;2022-08-25T13:56:00;9.85;;;8.88;;
73168;SDS011;61379;59.732;30.468;2022-08-25T13:58:28;9.30;;;8.60;;
73168;SDS011;61379;59.732;30.468;2022-08-25T14:01:05;10.40;;;9.38;;
73168;SDS011;61379;59.732;30.468;2022-08-25T14:03:34;9.50;;;8.68;;
73168;SDS011;61379;59.732;30.468;2022-08-25T14:06:05;8.68;;;7.97;;
73168;SDS011;61379;59.732;30.468;2022-08-25T14:08:33;9.00;;;8.13;;
73168;SDS011;61379;59.732;30.468;2022-08-25T14:11:04;8.50;;;7.80;;
73168;SDS011;61379;59.732;30.468;2022-08-25T14:13:31;8.52;;;7.60;;
73168;SDS011;61379;59.732;30.468;2022-08-25T14:16:06;9.18;;;8.32;;
73168;SDS011;61379;59.732;30.468;2022-08-25T14:18:34;9.73;;;8.43;;
73168;SDS011;61379;59.732;30.468;2022-08-25T14:21:01;8.80;;;7.90;;
73168;SDS011;61379;59.732;30.468;2022-08-25T23:32:22;9.02;;;7.25;;
73168;SDS011;61379;59.732;30.468;2022-08-25T23:34:49;9.27;;;8.23;;
73168;SDS011;61379;59.732;30.468;2022-08-25T23:37:16;8.82;;;7.93;;
73168;SDS011;61379;59.732;30.468;2022-08-25T23:39:44;9.30;;;8.30;;
73168;SDS011;61379;59.732;30.468;2022-08-25T23:42:12;8.27;;;7.47;;
73168;SDS011;61379;59.732;30.468;2022-08-25T23:44:39;8.20;;;7.45;;
73168;SDS011;61379;59.732;30.468;2022-08-25T23:47:08;8.43;;;7.45;;
73168;SDS011;61379;59.732;30.468;2022-08-25T23:49:36;7.85;;;7.05;;
73168;SDS011;61379;59.732;30.468;2022-08-25T23:52:03;8.65;;;7.72;;
73168;SDS011;61379;59.732;30.468;2022-08-25T23:54:30;11.13;;;7.57;;
73168;SDS011;61379;59.732;30.468;2022-08-25T23:56:57;8.43;;;7.63;;
73168;SDS011;61379;59.732;30.468;2022-08-25T23:59:24;10.02;;;8.70;;
